createdAt,value
2017-01-27T00:00:08.569Z,18.86
2017-01-27T00:00:49.201Z,18.83
2017-01-27T00:01:29.916Z,18.82
2017-01-27T00:02:10.579Z,18.83
2017-01-27T00:02:51.247Z,18.84
2017-01-27T00:03:31.880Z,18.87
2017-01-27T00:04:12.523Z,18.87
2017-01-27T00:04:53.243Z,18.79
2017-01-27T00:05:33.892Z,18.87
2017-01-27T00:06:14.526Z,18.82
2017-01-27T00:06:55.174Z,18.79
2017-01-27T00:07:35.933Z,18.77
2017-01-27T00:08:16.567Z,18.83
2017-01-27T00:08:57.206Z,18.8
2017-01-27T00:09:37.845Z,18.79
2017-01-27T00:10:18.491Z,18.73
2017-01-27T00:10:59.261Z,18.72
2017-01-27T00:11:39.958Z,18.76
2017-01-27T00:12:20.610Z,18.74
2017-01-27T00:13:01.273Z,18.74
2017-01-27T00:13:41.990Z,18.74
2017-01-27T00:14:22.624Z,18.79
2017-01-27T00:15:03.278Z,18.79
2017-01-27T00:15:43.929Z,18.82
2017-01-27T00:16:24.666Z,18.79
2017-01-27T00:17:05.303Z,18.76
2017-01-27T00:17:45.937Z,18.77
2017-01-27T00:18:26.594Z,18.76
2017-01-27T00:19:07.225Z,18.72
2017-01-27T00:19:47.871Z,18.73
2017-01-27T00:20:28.534Z,18.73
2017-01-27T00:21:09.185Z,18.76
2017-01-27T00:21:49.834Z,18.76
2017-01-27T00:22:30.473Z,18.76
2017-01-27T00:23:11.120Z,18.77
2017-01-27T00:23:51.771Z,18.77
2017-01-27T00:24:32.405Z,18.74
2017-01-27T00:25:13.045Z,18.67
2017-01-27T00:25:53.703Z,18.7
2017-01-27T00:26:34.399Z,18.72
2017-01-27T00:27:15.032Z,18.7
2017-01-27T00:27:55.686Z,18.68
2017-01-27T00:28:36.342Z,18.65
2017-01-27T00:29:16.971Z,18.72
2017-01-27T00:29:57.621Z,18.74
2017-01-27T00:30:38.382Z,18.65
2017-01-27T00:31:19.018Z,18.67
2017-01-27T00:31:59.692Z,18.61
2017-01-27T00:32:40.328Z,18.68
2017-01-27T00:33:20.963Z,18.67
2017-01-27T00:34:01.680Z,18.68
2017-01-27T00:34:42.375Z,18.72
2017-01-27T00:35:23.018Z,18.59
2017-01-27T00:36:03.648Z,18.68
2017-01-27T00:36:44.283Z,18.68
2017-01-27T00:37:24.952Z,18.72
2017-01-27T00:38:05.567Z,18.58
2017-01-27T00:38:46.207Z,18.64
2017-01-27T00:39:26.852Z,18.65
2017-01-27T00:40:07.488Z,18.68
2017-01-27T00:40:48.182Z,18.65
2017-01-27T00:41:28.820Z,18.64
2017-01-27T00:42:09.459Z,18.67
2017-01-27T00:42:50.094Z,18.64
2017-01-27T00:43:30.846Z,18.61
2017-01-27T00:44:11.386Z,18.67
2017-01-27T00:44:52.039Z,18.65
2017-01-27T00:45:32.671Z,18.67
2017-01-27T00:46:13.390Z,18.58
2017-01-27T00:46:54.027Z,18.65
2017-01-27T00:47:34.688Z,18.67
2017-01-27T00:48:15.296Z,18.62
2017-01-27T00:48:55.929Z,18.61
2017-01-27T00:49:36.589Z,18.55
2017-01-27T00:50:17.231Z,18.64
2017-01-27T00:50:57.925Z,18.58
2017-01-27T00:51:38.559Z,18.55
2017-01-27T00:52:19.197Z,18.67
2017-01-27T00:52:59.832Z,18.55
2017-01-27T00:53:40.468Z,18.52
2017-01-27T00:54:21.108Z,18.55
2017-01-27T00:55:01.732Z,18.58
2017-01-27T00:55:42.365Z,18.57
2017-01-27T00:56:23.012Z,18.52
2017-01-27T00:57:03.647Z,18.57
2017-01-27T00:57:44.278Z,18.7
2017-01-27T00:58:24.918Z,18.54
2017-01-27T00:59:05.555Z,18.59
2017-01-27T00:59:46.184Z,18.55
2017-01-27T01:00:26.834Z,18.55
2017-01-27T01:01:07.567Z,18.55
2017-01-27T01:01:48.207Z,18.55
2017-01-27T01:02:28.840Z,18.55
2017-01-27T01:03:09.468Z,18.55
2017-01-27T01:03:50.091Z,18.57
2017-01-27T01:04:30.719Z,18.55
2017-01-27T01:05:11.372Z,18.55
2017-01-27T01:05:52.001Z,18.55
2017-01-27T01:06:32.633Z,18.55
2017-01-27T01:07:13.284Z,18.54
2017-01-27T01:07:53.918Z,18.52
2017-01-27T01:08:34.549Z,18.54
2017-01-27T01:09:15.189Z,18.47
2017-01-27T01:09:55.827Z,18.52
2017-01-27T01:10:36.464Z,18.5
2017-01-27T01:11:17.126Z,18.54
2017-01-27T01:11:57.771Z,18.5
2017-01-27T01:12:38.553Z,18.5
2017-01-27T01:13:19.228Z,18.47
2017-01-27T01:13:59.863Z,18.47
2017-01-27T01:14:40.487Z,18.49
2017-01-27T01:15:21.123Z,18.47
2017-01-27T01:16:01.752Z,18.47
2017-01-27T01:16:42.379Z,18.47
2017-01-27T01:17:23.009Z,18.5
2017-01-27T01:18:03.654Z,18.5
2017-01-27T01:18:44.367Z,18.47
2017-01-27T01:19:25.000Z,18.43
2017-01-27T01:20:05.649Z,18.49
2017-01-27T01:20:46.289Z,18.49
2017-01-27T01:21:26.935Z,18.49
2017-01-27T01:22:07.566Z,18.43
2017-01-27T01:22:48.256Z,18.47
2017-01-27T01:23:28.900Z,18.43
2017-01-27T01:24:09.533Z,18.44
2017-01-27T01:24:50.150Z,18.55
2017-01-27T01:25:30.786Z,18.47
2017-01-27T01:26:11.415Z,18.49
2017-01-27T01:26:52.076Z,18.52
2017-01-27T01:27:32.782Z,18.44
2017-01-27T01:28:13.424Z,18.54
2017-01-27T01:28:54.050Z,18.54
2017-01-27T01:29:34.685Z,18.4
2017-01-27T01:30:15.327Z,18.39
2017-01-27T01:30:56.034Z,18.4
2017-01-27T01:31:36.672Z,18.44
2017-01-27T01:32:17.307Z,18.5
2017-01-27T01:32:57.954Z,18.43
2017-01-27T01:33:38.598Z,18.5
2017-01-27T01:34:19.236Z,18.42
2017-01-27T01:34:59.881Z,18.4
2017-01-27T01:35:40.558Z,18.43
2017-01-27T01:36:21.209Z,18.44
2017-01-27T01:37:01.833Z,18.4
2017-01-27T01:37:42.461Z,18.42
2017-01-27T01:38:23.085Z,18.42
2017-01-27T01:39:03.714Z,18.44
2017-01-27T01:39:44.440Z,18.43
2017-01-27T01:40:24.990Z,18.43
2017-01-27T01:41:05.634Z,18.4
2017-01-27T01:41:46.262Z,18.39
2017-01-27T01:42:26.910Z,18.42
2017-01-27T01:43:07.617Z,18.49
2017-01-27T01:43:48.302Z,18.43
2017-01-27T01:44:28.878Z,18.44
2017-01-27T01:45:09.510Z,18.37
2017-01-27T01:45:50.139Z,18.47
2017-01-27T01:46:30.770Z,18.33
2017-01-27T01:47:11.398Z,18.39
2017-01-27T01:47:52.025Z,18.4
2017-01-27T01:48:32.650Z,18.44
2017-01-27T01:49:13.282Z,18.39
2017-01-27T01:49:53.917Z,18.47
2017-01-27T01:50:34.568Z,18.43
2017-01-27T01:52:47.570Z,18.4
2017-01-27T01:53:28.188Z,18.43
2017-01-27T01:54:08.806Z,18.36
2017-01-27T01:54:49.491Z,18.47
2017-01-27T01:55:30.116Z,18.47
2017-01-27T01:56:10.755Z,18.46
2017-01-27T01:56:51.383Z,18.46
2017-01-27T01:57:32.007Z,18.46
2017-01-27T01:58:12.655Z,18.36
2017-01-27T01:58:53.318Z,18.39
2017-01-27T01:59:33.944Z,18.47
2017-01-27T02:00:14.575Z,18.43
2017-01-27T02:00:55.196Z,18.39
2017-01-27T02:01:35.832Z,18.36
2017-01-27T02:02:16.470Z,18.36
2017-01-27T02:02:57.104Z,18.37
2017-01-27T02:03:37.726Z,18.5
2017-01-27T02:04:18.424Z,18.36
2017-01-27T02:04:59.043Z,18.47
2017-01-27T02:05:39.695Z,18.37
2017-01-27T02:06:20.321Z,18.39
2017-01-27T02:07:01.035Z,18.4
2017-01-27T02:07:41.703Z,18.39
2017-01-27T02:08:22.344Z,18.4
2017-01-27T02:09:02.971Z,18.39
2017-01-27T02:09:43.614Z,18.47
2017-01-27T02:10:24.239Z,18.46
2017-01-27T02:11:04.920Z,18.42
2017-01-27T02:11:45.610Z,18.42
2017-01-27T02:12:26.212Z,18.39
2017-01-27T02:13:06.854Z,18.43
2017-01-27T02:13:47.485Z,18.37
2017-01-27T02:14:28.118Z,18.42
2017-01-27T02:15:08.753Z,18.39
2017-01-27T02:15:49.385Z,18.39
2017-01-27T02:16:30.084Z,18.46
2017-01-27T02:17:10.708Z,18.39
2017-01-27T02:17:51.339Z,18.39
2017-01-27T02:18:31.966Z,18.37
2017-01-27T02:19:12.637Z,18.37
2017-01-27T02:19:53.294Z,18.39
2017-01-27T02:20:33.914Z,18.4
2017-01-27T02:21:14.539Z,18.42
2017-01-27T02:21:55.203Z,18.43
2017-01-27T02:22:35.932Z,18.31
2017-01-27T02:23:16.563Z,18.37
2017-01-27T02:23:57.187Z,18.25
2017-01-27T02:24:37.814Z,18.28
2017-01-27T02:25:18.438Z,18.36
2017-01-27T02:25:59.071Z,18.27
2017-01-27T02:26:39.694Z,18.28
2017-01-27T02:27:20.318Z,18.22
2017-01-27T02:28:00.942Z,18.28
2017-01-27T02:28:41.574Z,18.29
2017-01-27T02:29:22.209Z,18.25
2017-01-27T02:30:02.832Z,18.22
2017-01-27T02:30:43.528Z,18.28
2017-01-27T02:31:24.153Z,18.34
2017-01-27T02:32:04.780Z,18.29
2017-01-27T02:32:45.444Z,18.22
2017-01-27T02:33:26.079Z,18.34
2017-01-27T02:34:06.708Z,18.25
2017-01-27T02:34:47.342Z,18.28
2017-01-27T02:35:27.960Z,18.25
2017-01-27T02:36:08.587Z,18.29
2017-01-27T02:36:49.232Z,18.28
2017-01-27T02:37:29.852Z,18.34
2017-01-27T02:38:10.486Z,18.29
2017-01-27T02:38:51.121Z,18.28
2017-01-27T02:39:31.740Z,18.27
2017-01-27T02:40:12.436Z,18.34
2017-01-27T02:40:53.079Z,18.25
2017-01-27T02:41:33.713Z,18.28
2017-01-27T02:42:14.359Z,18.29
2017-01-27T02:42:55.029Z,18.27
2017-01-27T02:43:35.684Z,18.28
2017-01-27T02:44:16.304Z,18.27
2017-01-27T02:44:56.925Z,18.28
2017-01-27T02:45:37.562Z,18.24
2017-01-27T02:46:18.193Z,18.27
2017-01-27T02:46:58.952Z,18.27
2017-01-27T02:47:39.590Z,18.27
2017-01-27T02:48:20.238Z,18.25
2017-01-27T02:49:00.857Z,18.25
2017-01-27T02:49:41.488Z,18.25
2017-01-27T02:50:22.177Z,18.28
2017-01-27T02:51:02.799Z,18.27
2017-01-27T02:51:43.436Z,18.31
2017-01-27T02:52:24.070Z,18.31
2017-01-27T02:53:04.729Z,18.25
2017-01-27T02:53:45.354Z,18.27
2017-01-27T02:54:25.974Z,18.25
2017-01-27T02:55:06.624Z,18.27
2017-01-27T02:55:47.246Z,18.24
2017-01-27T02:56:27.885Z,18.22
2017-01-27T02:57:08.513Z,18.22
2017-01-27T02:57:49.133Z,18.29
2017-01-27T02:58:29.843Z,18.19
2017-01-27T02:59:10.483Z,18.33
2017-01-27T02:59:51.112Z,18.24
2017-01-27T03:00:31.733Z,18.25
2017-01-27T03:01:12.369Z,18.22
2017-01-27T03:01:52.995Z,18.28
2017-01-27T03:02:33.658Z,18.25
2017-01-27T03:03:14.286Z,18.25
2017-01-27T03:03:54.931Z,18.25
2017-01-27T03:04:35.554Z,18.19
2017-01-27T03:05:16.193Z,18.22
2017-01-27T03:05:56.804Z,18.22
2017-01-27T03:06:37.480Z,18.22
2017-01-27T03:07:18.102Z,18.27
2017-01-27T03:07:58.817Z,18.18
2017-01-27T03:08:39.454Z,18.24
2017-01-27T03:09:20.080Z,18.18
2017-01-27T03:10:00.704Z,18.24
2017-01-27T03:10:41.419Z,18.25
2017-01-27T03:11:22.135Z,18.21
2017-01-27T03:12:02.676Z,18.18
2017-01-27T03:12:43.312Z,18.21
2017-01-27T03:13:23.939Z,18.29
2017-01-27T03:14:04.567Z,18.25
2017-01-27T03:14:45.207Z,18.25
2017-01-27T03:15:25.835Z,18.29
2017-01-27T03:16:06.484Z,18.28
2017-01-27T03:16:47.106Z,18.21
2017-01-27T03:17:27.735Z,18.24
2017-01-27T03:18:08.354Z,18.21
2017-01-27T03:18:49.023Z,18.25
2017-01-27T03:19:29.650Z,18.27
2017-01-27T03:20:10.287Z,18.27
2017-01-27T03:20:50.912Z,18.21
2017-01-27T03:21:31.560Z,18.28
2017-01-27T03:22:12.252Z,18.27
2017-01-27T03:22:52.878Z,18.19
2017-01-27T03:23:33.513Z,18.27
2017-01-27T03:24:14.182Z,18.28
2017-01-27T03:24:54.817Z,18.25
2017-01-27T03:25:35.436Z,18.28
2017-01-27T03:26:16.064Z,18.18
2017-01-27T03:26:56.790Z,18.24
2017-01-27T03:27:37.439Z,18.19
2017-01-27T03:28:18.063Z,18.21
2017-01-27T03:28:58.754Z,18.25
2017-01-27T03:29:39.377Z,18.22
2017-01-27T03:30:20.001Z,18.24
2017-01-27T03:31:00.639Z,18.21
2017-01-27T03:31:41.258Z,18.19
2017-01-27T03:32:21.899Z,18.18
2017-01-27T03:33:02.526Z,18.22
2017-01-27T03:33:43.149Z,18.29
2017-01-27T03:34:23.880Z,18.21
2017-01-27T03:35:04.508Z,18.19
2017-01-27T03:35:45.140Z,18.19
2017-01-27T03:36:25.766Z,18.21
2017-01-27T03:37:06.393Z,18.24
2017-01-27T03:37:47.030Z,18.19
2017-01-27T03:38:27.669Z,18.24
2017-01-27T03:39:08.306Z,18.17
2017-01-27T03:39:48.948Z,18.24
2017-01-27T03:40:29.569Z,18.21
2017-01-27T03:41:10.203Z,18.22
2017-01-27T03:41:50.880Z,18.22
2017-01-27T03:42:31.510Z,18.21
2017-01-27T03:43:12.152Z,18.21
2017-01-27T03:43:52.783Z,18.22
2017-01-27T03:44:33.439Z,18.21
2017-01-27T03:45:14.071Z,18.21
2017-01-27T03:45:54.719Z,18.21
2017-01-27T03:46:35.443Z,18.18
2017-01-27T03:47:16.083Z,18.21
2017-01-27T03:47:56.730Z,18.21
2017-01-27T03:48:37.364Z,18.19
2017-01-27T03:49:18.008Z,18.24
2017-01-27T03:49:58.729Z,18.12
2017-01-27T03:50:39.378Z,18.15
2017-01-27T03:51:20.002Z,18.1
2017-01-27T03:52:00.643Z,18.17
2017-01-27T03:52:41.269Z,18.09
2017-01-27T03:53:21.903Z,18.18
2017-01-27T03:54:02.538Z,18.15
2017-01-27T03:54:43.170Z,18.19
2017-01-27T03:55:23.807Z,18.09
2017-01-27T03:56:04.426Z,18.13
2017-01-27T03:56:45.139Z,18.06
2017-01-27T03:57:25.771Z,18.06
2017-01-27T03:58:06.409Z,18.1
2017-01-27T03:58:47.059Z,18.1
2017-01-27T03:59:27.697Z,18.12
2017-01-27T04:00:08.347Z,18.13
2017-01-27T04:00:48.981Z,18.13
2017-01-27T04:01:29.613Z,18.07
2017-01-27T04:02:10.286Z,18.18
2017-01-27T04:02:50.911Z,18.13
2017-01-27T04:03:31.543Z,18.06
2017-01-27T04:04:12.168Z,18.07
2017-01-27T04:04:52.799Z,18.09
2017-01-27T04:05:33.426Z,18.17
2017-01-27T04:06:14.126Z,18.21
2017-01-27T04:06:54.762Z,18.24
2017-01-27T04:07:35.405Z,18.13
2017-01-27T04:08:16.037Z,18.15
2017-01-27T04:08:56.678Z,18.09
2017-01-27T04:09:37.309Z,18.03
2017-01-27T04:10:18.014Z,18.12
2017-01-27T04:10:58.697Z,18.19
2017-01-27T04:11:39.323Z,18.18
2017-01-27T04:12:19.966Z,18.06
2017-01-27T04:13:00.598Z,18.07
2017-01-27T04:13:41.217Z,18.18
2017-01-27T04:14:21.938Z,18.03
2017-01-27T04:15:02.577Z,18.17
2017-01-27T04:15:43.233Z,18.09
2017-01-27T04:16:23.884Z,18.13
2017-01-27T04:17:04.530Z,18.18
2017-01-27T04:17:45.155Z,18.12
2017-01-27T04:18:25.780Z,18.19
2017-01-27T04:19:06.464Z,18.15
2017-01-27T04:19:47.105Z,18.17
2017-01-27T04:20:27.736Z,18.12
2017-01-27T04:21:08.441Z,18.19
2017-01-27T04:21:49.069Z,18.1
2017-01-27T04:22:29.781Z,18.04
2017-01-27T04:23:10.399Z,18.13
2017-01-27T04:23:51.028Z,18.1
2017-01-27T04:24:31.667Z,18.15
2017-01-27T04:25:12.300Z,18.09
2017-01-27T04:25:52.927Z,18.09
2017-01-27T04:26:33.555Z,18.18
2017-01-27T04:27:14.183Z,18.1
2017-01-27T04:27:54.821Z,18.13
2017-01-27T04:28:35.469Z,18.09
2017-01-27T04:29:16.094Z,18.19
2017-01-27T04:29:56.727Z,18.06
2017-01-27T04:30:37.417Z,18.1
2017-01-27T04:31:18.058Z,18.21
2017-01-27T04:31:58.708Z,18.17
2017-01-27T04:32:39.344Z,18.12
2017-01-27T04:33:20.090Z,18.1
2017-01-27T04:34:00.620Z,18.12
2017-01-27T04:34:41.259Z,18.12
2017-01-27T04:35:21.883Z,18.09
2017-01-27T04:36:02.515Z,18.13
2017-01-27T04:36:43.190Z,18.17
2017-01-27T04:37:23.820Z,18
2017-01-27T04:38:04.476Z,18.1
2017-01-27T04:38:45.097Z,18.15
2017-01-27T04:39:25.745Z,18.13
2017-01-27T04:40:06.384Z,18.1
2017-01-27T04:40:47.041Z,18.1
2017-01-27T04:41:27.670Z,18.04
2017-01-27T04:42:08.298Z,18.1
2017-01-27T04:42:48.941Z,18.02
2017-01-27T04:43:29.562Z,18.12
2017-01-27T04:44:10.191Z,18.13
2017-01-27T04:44:50.819Z,18.09
2017-01-27T04:45:31.456Z,18.1
2017-01-27T04:46:12.139Z,18.09
2017-01-27T04:46:52.824Z,18.07
2017-01-27T04:47:33.454Z,18.09
2017-01-27T04:48:14.092Z,18.09
2017-01-27T04:48:54.728Z,18.07
2017-01-27T04:49:35.357Z,18.09
2017-01-27T04:50:15.986Z,18.09
2017-01-27T04:50:56.684Z,18.07
2017-01-27T04:51:37.330Z,18.12
2017-01-27T04:52:17.966Z,18.1
2017-01-27T04:52:58.596Z,18.04
2017-01-27T04:53:39.247Z,18.09
2017-01-27T04:54:19.931Z,18.1
2017-01-27T04:55:00.571Z,18.06
2017-01-27T04:55:41.206Z,18.09
2017-01-27T04:56:21.834Z,18.07
2017-01-27T04:57:02.456Z,18
2017-01-27T04:57:43.091Z,18.04
2017-01-27T04:58:23.753Z,18.09
2017-01-27T04:59:04.398Z,18.07
2017-01-27T04:59:45.036Z,18.07
2017-01-27T05:00:25.667Z,18.02
2017-01-27T05:01:06.341Z,18.09
2017-01-27T05:01:46.932Z,18.09
2017-01-27T05:02:27.561Z,18.1
2017-01-27T05:03:08.201Z,18.07
2017-01-27T05:03:48.888Z,18.03
2017-01-27T05:04:29.516Z,18.04
2017-01-27T05:05:10.147Z,18.04
2017-01-27T05:05:50.791Z,18.03
2017-01-27T05:07:48.654Z,18.03
2017-01-27T05:08:29.279Z,18.07
2017-01-27T05:09:09.915Z,18.02
2017-01-27T05:09:50.545Z,18.06
2017-01-27T05:10:31.169Z,18.07
2017-01-27T05:11:11.816Z,18.04
2017-01-27T05:11:52.443Z,18.06
2017-01-27T05:12:33.151Z,18.03
2017-01-27T05:13:13.816Z,18.1
2017-01-27T05:13:54.449Z,18.07
2017-01-27T05:14:35.094Z,18.04
2017-01-27T05:15:15.707Z,18.03
2017-01-27T05:15:56.398Z,18.02
2017-01-27T05:16:37.033Z,18.06
2017-01-27T05:17:17.658Z,18.13
2017-01-27T05:17:58.287Z,18.09
2017-01-27T05:18:38.915Z,18.04
2017-01-27T05:19:19.560Z,18.02
2017-01-27T05:20:00.185Z,18.04
2017-01-27T05:20:40.839Z,18.04
2017-01-27T05:21:21.470Z,18.07
2017-01-27T05:22:02.090Z,18.03
2017-01-27T05:22:42.723Z,18.02
2017-01-27T05:23:23.352Z,18.02
2017-01-27T05:24:03.999Z,18.07
2017-01-27T05:24:44.621Z,18.04
2017-01-27T05:25:25.310Z,18.06
2017-01-27T05:26:05.937Z,18.02
2017-01-27T05:26:46.573Z,18.04
2017-01-27T05:27:27.209Z,18.04
2017-01-27T05:28:07.909Z,18.06
2017-01-27T05:28:48.536Z,18.06
2017-01-27T05:29:29.161Z,18.12
2017-01-27T05:30:09.788Z,18
2017-01-27T05:30:50.421Z,18
2017-01-27T05:31:31.058Z,18.02
2017-01-27T05:32:11.801Z,18.02
2017-01-27T05:32:52.424Z,17.97
2017-01-27T05:33:33.056Z,18.02
2017-01-27T05:34:13.678Z,18.03
2017-01-27T05:34:54.321Z,18
2017-01-27T05:35:34.946Z,18.03
2017-01-27T05:36:15.570Z,18.04
2017-01-27T05:36:56.198Z,18.02
2017-01-27T05:37:36.834Z,18
2017-01-27T05:38:17.463Z,18
2017-01-27T05:38:58.095Z,18.02
2017-01-27T05:39:38.727Z,17.97
2017-01-27T05:40:19.364Z,17.95
2017-01-27T05:41:00.000Z,17.97
2017-01-27T05:41:40.657Z,17.97
2017-01-27T05:42:21.308Z,17.94
2017-01-27T05:43:01.936Z,17.91
2017-01-27T05:43:42.579Z,17.89
2017-01-27T05:44:23.271Z,18.02
2017-01-27T05:45:03.859Z,17.99
2017-01-27T05:45:44.513Z,17.95
2017-01-27T05:46:25.140Z,17.94
2017-01-27T05:47:05.809Z,17.91
2017-01-27T05:47:46.443Z,17.94
2017-01-27T05:48:27.065Z,17.94
2017-01-27T05:49:07.721Z,18.02
2017-01-27T05:49:48.434Z,17.94
2017-01-27T05:50:29.083Z,17.94
2017-01-27T05:51:09.713Z,17.92
2017-01-27T05:51:50.345Z,17.99
2017-01-27T05:52:31.056Z,17.95
2017-01-27T05:53:11.704Z,17.97
2017-01-27T05:53:52.330Z,17.95
2017-01-27T05:54:32.953Z,17.99
2017-01-27T05:55:13.582Z,17.97
2017-01-27T05:55:54.198Z,17.99
2017-01-27T05:56:34.841Z,17.94
2017-01-27T05:57:15.496Z,18
2017-01-27T05:57:56.122Z,17.91
2017-01-27T05:58:36.762Z,17.94
2017-01-27T05:59:17.396Z,17.89
2017-01-27T05:59:58.041Z,17.99
2017-01-27T06:00:38.678Z,17.99
2017-01-27T06:01:19.325Z,17.92
2017-01-27T06:02:00.025Z,18
2017-01-27T06:02:40.644Z,17.91
2017-01-27T06:03:21.271Z,17.99
2017-01-27T06:04:01.912Z,17.92
2017-01-27T06:04:42.534Z,17.94
2017-01-27T06:05:23.169Z,17.94
2017-01-27T06:06:03.794Z,17.92
2017-01-27T06:06:44.436Z,17.94
2017-01-27T06:07:25.064Z,17.91
2017-01-27T06:08:05.762Z,17.94
2017-01-27T06:08:46.407Z,17.91
2017-01-27T06:09:27.032Z,17.97
2017-01-27T06:10:07.679Z,17.91
2017-01-27T06:10:48.311Z,17.95
2017-01-27T06:11:28.947Z,17.91
2017-01-27T06:12:09.573Z,17.95
2017-01-27T06:12:50.206Z,18
2017-01-27T06:13:30.843Z,17.95
2017-01-27T06:14:11.472Z,17.95
2017-01-27T06:14:52.090Z,17.97
2017-01-27T06:15:32.725Z,17.91
2017-01-27T06:16:13.361Z,18
2017-01-27T06:16:53.999Z,17.89
2017-01-27T06:17:34.620Z,17.89
2017-01-27T06:18:15.283Z,18.02
2017-01-27T06:18:55.927Z,17.91
2017-01-27T06:19:36.565Z,17.95
2017-01-27T06:20:17.192Z,17.89
2017-01-27T06:20:57.832Z,17.89
2017-01-27T06:21:38.472Z,17.85
2017-01-27T06:22:19.095Z,17.89
2017-01-27T06:22:59.762Z,17.94
2017-01-27T06:23:40.463Z,17.88
2017-01-27T06:24:21.094Z,17.88
2017-01-27T06:25:01.757Z,17.95
2017-01-27T06:25:42.403Z,17.94
2017-01-27T06:26:23.023Z,17.92
2017-01-27T06:27:03.654Z,17.89
2017-01-27T06:27:44.323Z,17.88
2017-01-27T06:28:24.960Z,17.89
2017-01-27T06:29:05.587Z,17.89
2017-01-27T06:29:46.226Z,17.92
2017-01-27T06:30:26.857Z,17.94
2017-01-27T06:31:07.494Z,17.89
2017-01-27T06:31:48.130Z,17.92
2017-01-27T06:32:28.760Z,17.97
2017-01-27T06:33:09.498Z,17.91
2017-01-27T06:33:50.124Z,17.91
2017-01-27T06:34:30.751Z,17.89
2017-01-27T06:35:11.393Z,17.97
2017-01-27T06:35:52.037Z,17.95
2017-01-27T06:36:32.662Z,17.94
2017-01-27T06:37:13.363Z,17.91
2017-01-27T06:37:54.019Z,17.97
2017-01-27T06:38:34.786Z,17.92
2017-01-27T06:39:15.849Z,17.97
2017-01-27T06:39:56.820Z,17.85
2017-01-27T06:40:37.503Z,17.89
2017-01-27T06:41:18.534Z,17.88
2017-01-27T06:41:59.416Z,17.94
2017-01-27T06:42:40.256Z,17.85
2017-01-27T06:43:21.112Z,17.92
2017-01-27T06:44:01.724Z,17.95
2017-01-27T06:44:42.366Z,17.89
2017-01-27T06:45:23.000Z,17.95
2017-01-27T06:46:04.249Z,17.94
2017-01-27T06:46:45.090Z,17.91
2017-01-27T06:47:26.017Z,17.92
2017-01-27T06:48:06.808Z,17.88
2017-01-27T06:48:47.589Z,17.89
2017-01-27T06:49:28.337Z,17.94
2017-01-27T06:50:09.029Z,17.92
2017-01-27T06:50:49.701Z,17.84
2017-01-27T06:51:30.841Z,17.92
2017-01-27T06:52:11.674Z,17.89
2017-01-27T06:52:52.321Z,17.87
2017-01-27T06:53:32.974Z,17.89
2017-01-27T06:54:13.623Z,17.94
2017-01-27T06:54:54.244Z,17.88
2017-01-27T06:55:35.223Z,17.82
2017-01-27T06:56:15.972Z,17.81
2017-01-27T06:56:56.791Z,17.85
2017-01-27T06:57:37.657Z,17.85
2017-01-27T06:58:18.324Z,17.84
2017-01-27T06:58:59.051Z,17.78
2017-01-27T06:59:39.694Z,17.81
2017-01-27T07:00:20.313Z,17.82
2017-01-27T07:01:01.118Z,17.78
2017-01-27T07:01:41.760Z,17.91
2017-01-27T07:02:22.408Z,17.87
2017-01-27T07:03:03.033Z,17.82
2017-01-27T07:03:43.659Z,17.82
2017-01-27T07:04:24.471Z,17.85
2017-01-27T07:05:05.169Z,17.81
2017-01-27T07:05:45.806Z,17.87
2017-01-27T07:06:26.454Z,17.84
2017-01-27T07:07:07.101Z,17.79
2017-01-27T07:07:47.804Z,17.88
2017-01-27T07:08:28.429Z,17.94
2017-01-27T07:09:09.059Z,17.81
2017-01-27T07:09:49.683Z,17.81
2017-01-27T07:10:30.426Z,17.85
2017-01-27T07:11:11.079Z,17.84
2017-01-27T07:11:51.724Z,17.84
2017-01-27T07:12:32.377Z,17.76
2017-01-27T07:13:13.004Z,17.81
2017-01-27T07:13:53.637Z,17.79
2017-01-27T07:14:34.296Z,17.81
2017-01-27T07:15:14.919Z,17.81
2017-01-27T07:15:55.552Z,17.78
2017-01-27T07:16:36.186Z,17.84
2017-01-27T07:17:16.812Z,17.89
2017-01-27T07:17:57.536Z,17.92
2017-01-27T07:18:38.170Z,17.79
2017-01-27T07:19:18.810Z,17.81
2017-01-27T07:19:59.442Z,17.85
2017-01-27T07:20:40.073Z,17.76
2017-01-27T07:21:20.721Z,17.85
2017-01-27T07:22:01.404Z,17.82
2017-01-27T07:22:42.079Z,17.81
2017-01-27T07:23:22.707Z,17.79
2017-01-27T07:24:03.349Z,17.78
2017-01-27T07:24:43.987Z,17.89
2017-01-27T07:25:24.604Z,17.81
2017-01-27T07:26:05.333Z,17.78
2017-01-27T07:26:45.965Z,17.84
2017-01-27T07:27:26.591Z,17.76
2017-01-27T07:28:07.222Z,17.88
2017-01-27T07:28:47.980Z,17.84
2017-01-27T07:29:28.631Z,17.79
2017-01-27T07:30:09.298Z,17.81
2017-01-27T07:30:49.924Z,17.79
2017-01-27T07:31:30.557Z,17.78
2017-01-27T07:32:11.187Z,17.79
2017-01-27T07:32:51.861Z,17.74
2017-01-27T07:33:32.615Z,17.82
2017-01-27T07:34:13.237Z,17.84
2017-01-27T07:34:53.868Z,17.81
2017-01-27T07:35:34.500Z,17.85
2017-01-27T07:36:15.131Z,17.84
2017-01-27T07:36:55.873Z,17.89
2017-01-27T07:37:36.501Z,17.78
2017-01-27T07:38:17.145Z,17.73
2017-01-27T07:38:57.771Z,17.78
2017-01-27T07:39:38.392Z,17.84
2017-01-27T07:40:19.021Z,17.78
2017-01-27T07:40:59.731Z,17.85
2017-01-27T07:41:40.366Z,17.84
2017-01-27T07:42:20.988Z,17.85
2017-01-27T07:43:01.615Z,17.85
2017-01-27T07:43:42.241Z,17.78
2017-01-27T07:44:22.875Z,17.84
2017-01-27T07:45:03.512Z,17.78
2017-01-27T07:45:44.259Z,17.89
2017-01-27T07:46:24.814Z,17.78
2017-01-27T07:47:05.443Z,17.82
2017-01-27T07:47:46.104Z,17.79
2017-01-27T07:48:26.733Z,17.81
2017-01-27T07:49:07.451Z,17.73
2017-01-27T07:49:48.127Z,17.82
2017-01-27T07:50:28.813Z,17.78
2017-01-27T07:51:09.457Z,17.85
2017-01-27T07:51:50.102Z,17.79
2017-01-27T07:52:30.746Z,17.84
2017-01-27T07:53:11.470Z,17.81
2017-01-27T07:53:52.149Z,17.78
2017-01-27T07:54:32.779Z,17.78
2017-01-27T07:55:13.410Z,17.84
2017-01-27T07:55:54.098Z,17.79
2017-01-27T07:56:34.728Z,17.79
2017-01-27T07:57:15.372Z,17.88
2017-01-27T07:57:56.097Z,17.82
2017-01-27T07:58:36.749Z,17.78
2017-01-27T07:59:17.402Z,17.71
2017-01-27T07:59:58.034Z,17.81
2017-01-27T08:00:38.677Z,17.71
2017-01-27T08:01:19.310Z,17.82
2017-01-27T08:01:59.995Z,17.87
2017-01-27T08:02:40.633Z,17.81
2017-01-27T08:03:21.357Z,17.79
2017-01-27T08:04:01.986Z,17.82
2017-01-27T08:04:42.614Z,17.84
2017-01-27T08:05:23.269Z,17.78
2017-01-27T08:06:03.942Z,17.74
2017-01-27T08:06:44.577Z,17.78
2017-01-27T08:07:25.250Z,17.73
2017-01-27T08:08:05.921Z,17.71
2017-01-27T08:08:46.550Z,17.85
2017-01-27T08:09:27.185Z,17.74
2017-01-27T08:10:07.862Z,17.82
2017-01-27T08:10:48.528Z,17.71
2017-01-27T08:11:29.213Z,17.67
2017-01-27T08:12:09.844Z,17.71
2017-01-27T08:12:50.480Z,17.85
2017-01-27T08:13:31.117Z,17.73
2017-01-27T08:14:11.823Z,17.78
2017-01-27T08:14:52.483Z,17.76
2017-01-27T08:15:33.128Z,17.76
2017-01-27T08:16:13.764Z,17.82
2017-01-27T08:16:54.389Z,17.73
2017-01-27T08:17:35.026Z,17.74
2017-01-27T08:18:16.202Z,17.73
2017-01-27T08:18:56.844Z,17.73
2017-01-27T08:19:37.472Z,17.74
2017-01-27T08:20:18.113Z,17.67
2017-01-27T08:20:58.748Z,17.74
2017-01-27T08:21:39.378Z,17.73
2017-01-27T08:22:20.028Z,17.81
2017-01-27T08:23:00.722Z,17.74
2017-01-27T08:23:41.355Z,17.85
2017-01-27T08:24:21.995Z,17.78
2017-01-27T08:25:02.632Z,17.79
2017-01-27T08:25:43.300Z,17.79
2017-01-27T08:26:23.930Z,17.73
2017-01-27T08:27:04.563Z,17.79
2017-01-27T08:27:45.192Z,17.79
2017-01-27T08:28:25.824Z,17.74
2017-01-27T08:29:06.561Z,17.71
2017-01-27T08:29:47.221Z,17.79
2017-01-27T08:30:27.868Z,17.71
2017-01-27T08:31:08.509Z,17.76
2017-01-27T08:31:49.131Z,17.71
2017-01-27T08:32:29.760Z,17.7
2017-01-27T08:33:10.476Z,17.76
2017-01-27T08:33:51.126Z,17.76
2017-01-27T08:34:31.765Z,17.7
2017-01-27T08:35:12.413Z,17.66
2017-01-27T08:35:53.197Z,17.7
2017-01-27T08:36:33.831Z,17.69
2017-01-27T08:37:14.464Z,17.66
2017-01-27T08:37:55.084Z,17.71
2017-01-27T08:38:35.704Z,17.71
2017-01-27T08:39:16.337Z,17.63
2017-01-27T08:39:57.050Z,17.7
2017-01-27T08:40:37.674Z,17.7
2017-01-27T08:41:18.317Z,17.71
2017-01-27T08:41:58.952Z,17.71
2017-01-27T08:42:39.607Z,17.63
2017-01-27T08:43:20.241Z,17.67
2017-01-27T08:44:00.982Z,17.67
2017-01-27T08:44:41.616Z,17.66
2017-01-27T08:45:22.235Z,17.7
2017-01-27T08:46:02.855Z,17.73
2017-01-27T08:46:43.481Z,17.7
2017-01-27T08:47:24.106Z,17.66
2017-01-27T08:48:04.754Z,17.62